Denver, Colorado
Traffic Map
Current Weather Conditions
Denver, Colorado
Broken Clouds
Broken Clouds
62°
Feels Like: 62°
Wind Chill: 62° Ceiling: 11000
Heat Index: 62° Visibility: 10mi
Dew Point: 54° Wind: 2mph
Humidity: 76% Direction: 280° (W)
Pressure: 30.2in Gusts: 0mph
Raw Report DataKBKF 271458Z 28002KT 10SM FEW070 BKN110 BKN220 17/12 A3020 RMK AO2A SLP167 T01650123 52006
Traffic Incident Summary
Active as of:
Severity:
Category:
InformationThere was an issue retrieving the traffic information for this location. Please try a different location or try again shortly.
Advertisements
Track Severe Weather on mobile